• Join FlightAware (Why Join?)
  • Login
  • US Flag 
06:43AM EDT


 

Airport Tracker/Info


-or-


 

Live Flight TrackerFlight Track Log ✈ FFT919 ✈ 19-Jul-2013 ✈ KTTN - KRDU

Flight Track Log - Related Links

Times and Time Zones

All times are in EDT time to prevent confusion due to time zone crossing. See the FFT919 flight status page for this flight to view local times or setup timezone preferences in your user account.

Time Position Orientation Groundspeed Altitude Reporting Facility
EDT Latitude Longitude Course Direction KTS MPH feet Rate Location/Type
06:39AM 40.2520 -74.8460 228° Southwest 154 177 1,800  Level FlightAware
06:40AM 40.2380 -74.8670 229° Southwest 207 238 2,000 720 Climbing FlightAware
06:40AM 40.2150 -74.9040 231° Southwest 251 289 2,500 840 Climbing FlightAware
06:41AM 40.1880 -74.9330 219° Southwest 254 292 2,900 480 Climbing FlightAware
06:41AM 40.1740 -74.9340 183° South 260 299 2,900 840 Level FlightAware
06:41AM 40.1550 -74.9280 166° South 261 300 3,500 2,280 Climbing FlightAware
06:42AM 40.1250 -74.9170 164° South 267 307 4,800 4,560 Climbing FlightAware
06:42AM 40.0790 -74.9010 165° South 246 283 7,500 3,960 Climbing FlightAware
06:43AM 40.0360 -74.9070 186° South 238 274 9,400 2,220 Climbing FlightAware
06:43AM 40.0120 -74.9290 215° Southwest 268 308 10,000 420 Climbing FlightAware
06:44AM 39.9620 -74.9800 218° Southwest 329 379 9,900  Descending FlightAware
06:45AM 39.9310 -75.0110 217° Southwest 324 373 10,000 120 Climbing FlightAware
06:45AM 39.9080 -75.0330 216° Southwest 328 377 10,000  Level FlightAware
06:45AM 39.8890 -75.0520 218° Southwest 328 377 10,000  Level FlightAware
06:45AM 39.8770 -75.0650 220° Southwest 329 379 10,000 1,620 Level FlightAware
06:46AM 39.8220 -75.1190 217° Southwest 350 403 11,400 1,440 Climbing FlightAware
06:47AM 39.7530 -75.1870 217° Southwest 401 461 12,000 420 Climbing FlightAware
06:47AM 39.7010 -75.2390 218° Southwest 408 470 12,000  Level FlightAware
06:48AM 39.6680 -75.2710 217° Southwest 406 467 12,000 1,380 Level FlightAware
06:48AM 39.6030 -75.3080 204° Southwest 411 473 13,400 1,920 Climbing FlightAware
06:49AM 39.5280 -75.3230 189° South 424 488 14,600 1,620 Climbing FlightAware
06:50AM 39.4310 -75.3400 188° South 422 486 15,900 1,620 Climbing FlightAware
06:51AM 39.3440 -75.3560 188° South 440 506 16,900 1,680 Climbing FlightAware
06:51AM 39.2630 -75.3700 188° South 435 501 18,200 1,740 Climbing FlightAware
06:52AM 39.1670 -75.3870 188° South 450 518 19,500 2,340 Climbing FlightAware
06:53AM 39.0850 -75.3990 186° South 418 481 21,600 2,460 Climbing FlightAware
06:53AM 39.0250 -75.4080 187° South 421 484 22,900 1,740 Climbing FlightAware
06:54AM 38.9540 -75.4190 187° South 427 491 23,900 1,800 Climbing FlightAware
06:55AM 38.8420 -75.4360 187° South 436 502 25,300 1,560 Climbing FlightAware
06:55AM 38.7660 -75.4580 193° South 445 512 26,100 1,320 Climbing FlightAware
06:56AM 38.7040 -75.5010 208° Southwest 450 518 26,900 1,200 Climbing FlightAware
06:57AM 38.6280 -75.5540 209° Southwest 458 527 27,600 1,080 Climbing FlightAware
06:57AM 38.5470 -75.6110 209° Southwest 465 535 28,500 1,380 Climbing FlightAware
06:58AM 38.4770 -75.6610 209° Southwest 460 529 29,500 1,500 Climbing FlightAware
06:59AM 38.3910 -75.7200 208° Southwest 459 528 30,600 1,380 Climbing FlightAware
07:00AM 38.3120 -75.7750 209° Southwest 459 528 31,600 1,020 Climbing FlightAware
07:00AM 38.2370 -75.8270 209° Southwest 455 524 32,000 240 Climbing FlightAware
07:01AM 38.1590 -75.8810 209° Southwest 456 525 32,000  Level FlightAware
07:02AM 38.0760 -75.9390 209° Southwest 455 524 32,000  Level FlightAware
07:02AM 38.0340 -75.9680 209° Southwest 456 525 32,000  Level FlightAware
07:04AM 37.8210 -76.1150 209° Southwest 444 511 32,000  Level FlightAware
07:05AM 37.7480 -76.1650 208° Southwest 444 511 32,000 -120 Level FlightAware
07:05AM 37.6680 -76.2190 208° Southwest 445 512 31,900 -720 Descending FlightAware
07:06AM 37.5960 -76.2690 209° Southwest 445 512 31,000 -1,680 Descending FlightAware
07:07AM 37.5290 -76.3140 208° Southwest 436 502 29,700 -2,040 Descending FlightAware
07:07AM 37.4660 -76.3570 208° Southwest 435 501 28,300 -2,520 Descending FlightAware
07:08AM 37.3760 -76.4180 208° Southwest 424 488 26,400 -2,640 Descending FlightAware
07:09AM 37.3020 -76.4680 208° Southwest 415 478 24,800 -1,740 Descending FlightAware
07:09AM 37.2420 -76.5260 218° Southwest 418 481 24,000 -660 Descending FlightAware
07:10AM 37.1930 -76.6020 231° Southwest 433 498 24,000  Level FlightAware
07:10AM 37.1660 -76.6450 232° Southwest 433 498 24,000 -180 Level FlightAware
07:11AM 37.1060 -76.7370 231° Southwest 419 482 23,800 -600 Descending FlightAware
07:12AM 37.0600 -76.8090 231° Southwest 394 453 23,200 -1,020 Descending FlightAware
07:12AM 37.0210 -76.8680 230° Southwest 384 442 22,600 -780 Descending FlightAware
07:13AM 36.9840 -76.9260 231° Southwest 383 441 22,100 -420 Descending FlightAware
07:14AM 36.9380 -76.9970 231° Southwest 380 437 22,000 -120 Descending FlightAware
07:15AM 36.8880 -77.0730 231° Southwest 379 436 22,000  Level FlightAware
07:15AM 36.8530 -77.1260 230° Southwest 379 436 22,000  Level FlightAware
07:16AM 36.7830 -77.2340 231° Southwest 379 436 22,000  Level FlightAware
07:17AM 36.7230 -77.3270 231° Southwest 379 436 22,000 -120 Level FlightAware
07:18AM 36.6850 -77.3860 231° Southwest 401 461 21,900 -540 Descending FlightAware
07:18AM 36.6280 -77.4730 231° Southwest 368 423 21,300 -1,320 Descending FlightAware
07:19AM 36.5860 -77.5370 231° Southwest 365 420 20,200 -1,140 Descending FlightAware
07:20AM 36.5460 -77.5980 231° Southwest 361 415 19,800 -300 Descending FlightAware
07:21AM 36.5030 -77.6640 231° Southwest 361 415 19,800  Level FlightAware
07:21AM 36.4710 -77.7130 231° Southwest 361 415 19,800  Level FlightAware
07:22AM 36.4270 -77.7800 231° Southwest 361 415 19,800  Level FlightAware
07:23AM 36.3850 -77.8460 232° Southwest 361 415 19,800 -4,200 Level FlightAware
07:24AM 36.2970 -77.9760 230° Southwest 336 387 12,600 -5,400 Descending FlightAware
07:24AM 36.2610 -78.0300 230° Southwest 331 381 11,700 -1,500 Descending FlightAware
07:25AM 36.2230 -78.0870 230° Southwest 328 377 10,700 -1,260 Descending FlightAware
07:26AM 36.1830 -78.1470 230° Southwest 307 353 10,000 -1,080 Descending FlightAware
07:26AM 36.1560 -78.1970 236° Southwest 292 336 9,300 -1,080 Descending FlightAware
07:27AM 36.1370 -78.2370 240° Southwest 276 318 8,900 -600 Descending FlightAware
07:27AM 36.1280 -78.2560 240° Southwest 263 303 8,900  Level FlightAware
07:27AM 36.1140 -78.2950 246° West 240 276 8,900 -240 Level FlightAware
07:28AM 36.1050 -78.3260 250° West 237 273 8,700 -900 Descending FlightAware
07:28AM 36.0940 -78.3660 251° West 233 268 8,100 -1,080 Descending FlightAware
07:29AM 36.0860 -78.3960 252° West 230 265 7,700 -1,200 Descending FlightAware
07:29AM 36.0810 -78.4150 252° West 230 265 7,300 -1,140 Descending FlightAware
07:30AM 36.0710 -78.4500 251° West 220 253 6,900 -720 Descending FlightAware
07:30AM 36.0630 -78.4800 252° West 204 235 6,700 -1,020 Descending FlightAware
07:30AM 36.0550 -78.5120 253° West 197 227 6,000 -1,440 Descending FlightAware
07:31AM 36.0510 -78.5240 248° West 191 220 5,700 -2,040 Descending FlightAware
07:31AM 36.0420 -78.5590 252° West 190 219 4,500 -2,220 Descending FlightAware
07:32AM 36.0350 -78.5860 252° West 191 220 3,500 -1,800 Descending FlightAware
07:32AM 36.0250 -78.6130 245° Southwest 188 216 2,900 -1,020 Descending FlightAware
07:33AM 36.0080 -78.6370 229° Southwest 188 216 2,600 -840 Descending FlightAware
07:33AM 35.9950 -78.6520 223° Southwest 181 208 2,200 -600 Descending FlightAware
07:33AM 35.9850 -78.6650 226° Southwest 169 194 2,100 -180 Descending FlightAware
07:34AM 35.9750 -78.6780 226° Southwest 174 200 2,100  Level FlightAware
07:34AM 35.9610 -78.6950 225° Southwest 175 201 2,100 -360 Level FlightAware
07:35AM 35.9470 -78.7130 226° Southwest 166 191 1,800 -540 Descending FlightAware
07:35AM 35.9240 -78.7420 226° Southwest 142 163 1,500 -720 Descending FlightAware
07:36AM 35.9011 -78.7692 226° Southwest 116 133 800 -1,080 Descending Washington Center
07:38AM 35.8776 -78.7875 North  Level Estimated